Time;durP1;ratioP1;P1;durP2;ratioP2;P2;SDS_P1;SDS_P2;PMS_P1;PMS_P2;Temp;Humidity;BMP_temperature;BMP_pressure;BME280_temperature;BME280_humidity;BME280_pressure;Samples;Min_cycle;Max_cycle;Signal;HPM_P1;HPM_P2
2024/01/15 00:00:44;;;;;;;21.67;9.90;;;-2.70;99.90;;;;;;2059865;28;20268;-64
2024/01/15 00:01:45;;;;;;;16.92;9.20;;;-2.70;99.90;;;;;;2053309;28;20641;-64
2024/01/15 00:02:47;;;;;;;23.20;11.50;;;-2.70;99.90;;;;;;2040465;28;20243;-64
2024/01/15 00:03:47;;;;;;;19.60;8.90;;;-2.80;99.90;;;;;;2043319;28;20218;-64
2024/01/15 00:04:48;;;;;;;19.60;9.93;;;-2.80;99.90;;;;;;2049775;28;20244;-64
2024/01/15 00:05:49;;;;;;;19.50;9.83;;;-2.80;99.90;;;;;;2044627;28;20234;-64
2024/01/15 00:06:50;;;;;;;15.60;9.20;;;-2.80;99.90;;;;;;2052995;28;20308;-64
2024/01/15 00:07:50;;;;;;;16.55;9.27;;;-2.80;99.90;;;;;;2052952;28;20608;-64
2024/01/15 00:08:51;;;;;;;21.90;10.23;;;-2.90;99.90;;;;;;2045211;28;20230;-64
2024/01/15 00:09:52;;;;;;;19.27;9.37;;;-2.90;99.90;;;;;;2051957;28;20726;-64
2024/01/15 00:10:52;;;;;;;19.67;10.00;;;-3.00;99.90;;;;;;2053189;28;20229;-65
2024/01/15 00:11:53;;;;;;;20.13;8.63;;;-3.00;99.90;;;;;;2051789;28;20280;-65
2024/01/15 00:12:54;;;;;;;17.73;9.53;;;-3.00;99.90;;;;;;2052940;28;20266;-64
2024/01/15 00:13:54;;;;;;;15.67;7.83;;;-3.00;99.90;;;;;;2053722;28;20221;-64
2024/01/15 00:14:55;;;;;;;15.10;8.23;;;-3.10;99.90;;;;;;2053246;28;20280;-64
2024/01/15 00:15:56;;;;;;;21.80;10.20;;;-3.10;99.90;;;;;;2051300;28;20231;-64
2024/01/15 00:16:56;;;;;;;18.90;9.17;;;-3.00;99.90;;;;;;2052558;28;20225;-64
2024/01/15 00:17:57;;;;;;;17.00;9.73;;;-3.00;99.90;;;;;;2056806;28;20229;-64
2024/01/15 00:18:58;;;;;;;19.47;9.13;;;-3.00;99.90;;;;;;2056951;28;20217;-64
2024/01/15 00:19:59;;;;;;;20.17;9.37;;;-3.00;99.90;;;;;;2050236;28;20297;-64
2024/01/15 00:20:59;;;;;;;21.80;9.23;;;-2.90;99.90;;;;;;2050583;28;20257;-63
2024/01/15 00:22:00;;;;;;;17.97;9.07;;;-2.90;99.90;;;;;;2051921;28;20215;-65
2024/01/15 00:23:00;;;;;;;17.30;8.07;;;-3.00;99.90;;;;;;2051221;28;20214;-64
2024/01/15 00:24:01;;;;;;;17.37;8.60;;;-3.00;99.90;;;;;;2042335;28;20190;-64
2024/01/15 00:25:03;;;;;;;19.80;8.50;;;-3.00;99.90;;;;;;2039656;28;20660;-64
2024/01/15 00:26:04;;;;;;;16.40;7.53;;;-3.00;99.90;;;;;;2050111;28;20230;-63
2024/01/15 00:27:04;;;;;;;17.40;8.00;;;-3.00;99.90;;;;;;2052463;28;20663;-64
2024/01/15 00:28:05;;;;;;;14.73;6.77;;;-3.00;99.90;;;;;;2052059;28;20286;-63
2024/01/15 00:29:10;;;;;;;18.17;8.60;;;-3.00;99.90;;;;;;2050801;28;20186;-63
2024/01/15 00:30:11;;;;;;;17.13;8.43;;;-3.00;99.90;;;;;;2049491;28;20185;-64
2024/01/15 00:31:12;;;;;;;16.63;7.10;;;-2.90;99.90;;;;;;2052310;28;20189;-64
2024/01/15 00:32:12;;;;;;;15.37;8.20;;;-3.00;99.90;;;;;;2053497;28;20225;-64
2024/01/15 00:33:14;;;;;;;12.73;7.30;;;-2.90;99.90;;;;;;2044311;28;20217;-64
2024/01/15 00:34:15;;;;;;;17.58;8.93;;;-2.80;99.90;;;;;;2045293;28;20217;-64
2024/01/15 00:35:16;;;;;;;14.37;7.33;;;-2.90;99.90;;;;;;2051415;28;20198;-63
2024/01/15 00:36:16;;;;;;;14.53;6.80;;;-2.80;99.90;;;;;;2050898;28;20191;-64
2024/01/15 00:37:17;;;;;;;11.63;6.03;;;-2.80;99.90;;;;;;2053572;28;20218;-64
2024/01/15 00:38:18;;;;;;;13.33;6.67;;;-2.80;99.90;;;;;;2051174;28;20214;-64
2024/01/15 00:39:18;;;;;;;12.77;6.33;;;-2.90;99.90;;;;;;2047010;28;20184;-64
2024/01/15 00:40:19;;;;;;;11.93;6.10;;;-2.90;99.90;;;;;;2057726;28;20711;-65
2024/01/15 00:41:20;;;;;;;11.60;6.40;;;-2.80;99.90;;;;;;2059415;28;20277;-64
2024/01/15 00:42:21;;;;;;;13.00;7.03;;;-2.70;99.90;;;;;;2052604;28;20303;-64
2024/01/15 00:43:22;;;;;;;12.50;6.93;;;-2.70;99.90;;;;;;2053081;28;20264;-64
2024/01/15 00:44:22;;;;;;;13.55;6.93;;;-2.70;99.90;;;;;;2044485;28;20254;-64
2024/01/15 00:45:23;;;;;;;14.03;6.63;;;-2.60;99.90;;;;;;2051627;28;20289;-64
2024/01/15 00:46:24;;;;;;;14.50;7.00;;;-2.60;99.90;;;;;;2052164;28;20263;-63
2024/01/15 00:47:24;;;;;;;13.47;6.13;;;-2.50;99.80;;;;;;2051082;28;20714;-64
2024/01/15 00:48:25;;;;;;;11.00;5.57;;;-2.50;99.70;;;;;;2051605;28;20253;-64
2024/01/15 00:49:27;;;;;;;10.83;5.60;;;-2.50;99.60;;;;;;2050304;28;20286;-63
2024/01/15 00:50:27;;;;;;;10.98;5.85;;;-2.50;99.60;;;;;;2042114;28;20369;-64
2024/01/15 00:51:28;;;;;;;11.17;5.40;;;-2.50;99.60;;;;;;2049959;28;20235;-64
2024/01/15 00:52:29;;;;;;;10.23;5.37;;;-2.50;99.80;;;;;;2053178;28;20254;-64
2024/01/15 00:53:29;;;;;;;12.23;5.53;;;-2.50;99.90;;;;;;2053432;28;20261;-64
2024/01/15 00:54:30;;;;;;;12.77;5.87;;;-2.50;99.90;;;;;;2049233;28;20318;-63
2024/01/15 00:55:31;;;;;;;10.67;5.97;;;-2.50;99.90;;;;;;2052182;28;20239;-64
2024/01/15 00:56:31;;;;;;;13.00;5.90;;;-2.40;99.70;;;;;;2051482;28;20756;-64
2024/01/15 00:57:32;;;;;;;12.93;7.20;;;-2.40;99.60;;;;;;2043048;28;20238;-64
2024/01/15 00:58:33;;;;;;;12.77;6.35;;;-2.30;99.40;;;;;;2043652;28;20235;-64
2024/01/15 00:59:34;;;;;;;15.37;6.93;;;-2.30;99.30;;;;;;2045548;28;20261;-64
2024/01/15 01:00:35;;;;;;;13.93;6.23;;;-2.20;99.30;;;;;;2049814;28;20266;-64
2024/01/15 01:01:36;;;;;;;13.03;6.03;;;-2.20;99.10;;;;;;2050807;28;20238;-64
2024/01/15 01:02:36;;;;;;;12.27;5.25;;;-2.20;99.00;;;;;;2053839;28;20402;-64
2024/01/15 01:03:37;;;;;;;12.70;6.87;;;-2.20;98.90;;;;;;2053393;28;20292;-64
2024/01/15 01:04:38;;;;;;;11.60;5.93;;;-2.10;98.90;;;;;;2053218;28;20234;-64
2024/01/15 01:05:38;;;;;;;11.37;6.80;;;-2.10;98.50;;;;;;2052037;28;20234;-64
2024/01/15 01:06:39;;;;;;;13.77;6.40;;;-2.00;98.40;;;;;;2051278;28;20236;-64
2024/01/15 01:07:40;;;;;;;12.50;6.13;;;-1.90;98.00;;;;;;2051808;28;20246;-64
2024/01/15 01:08:41;;;;;;;14.13;6.13;;;-1.90;97.90;;;;;;2050910;28;20761;-64
2024/01/15 01:09:41;;;;;;;12.30;6.07;;;-1.90;98.00;;;;;;2051520;28;20330;-64
2024/01/15 01:10:42;;;;;;;10.90;5.93;;;-1.80;97.70;;;;;;2051732;28;20297;-64
2024/01/15 01:11:43;;;;;;;12.33;5.97;;;-1.70;98.10;;;;;;2049456;28;20231;-64
2024/01/15 01:12:44;;;;;;;13.73;5.93;;;-1.70;97.50;;;;;;2047714;28;20477;-64
2024/01/15 01:13:44;;;;;;;10.43;6.00;;;-1.70;97.40;;;;;;2044060;28;20235;-64
2024/01/15 01:14:45;;;;;;;15.30;7.20;;;-1.60;97.20;;;;;;2046055;28;20307;-64
2024/01/15 01:15:45;;;;;;;13.03;5.87;;;-1.60;97.20;;;;;;2051648;28;20287;-64
2024/01/15 01:16:46;;;;;;;11.03;6.03;;;-1.60;97.00;;;;;;2051170;28;20271;-64
2024/01/15 01:17:47;;;;;;;11.63;5.67;;;-1.60;97.00;;;;;;2051042;28;20291;-64
2024/01/15 01:18:48;;;;;;;12.17;5.43;;;-1.60;96.80;;;;;;2052047;28;20684;-64
2024/01/15 01:19:50;;;;;;;9.67;5.63;;;-1.60;96.70;;;;;;2052030;28;20247;-63
2024/01/15 01:20:51;;;;;;;11.52;5.60;;;-1.60;96.80;;;;;;2049963;28;20783;-63
2024/01/15 01:21:51;;;;;;;11.77;5.88;;;-1.50;96.80;;;;;;2049589;28;20306;-64
2024/01/15 01:22:52;;;;;;;10.77;5.00;;;-1.50;96.70;;;;;;2049716;28;20223;-64
2024/01/15 01:23:53;;;;;;;13.13;6.10;;;-1.40;96.80;;;;;;2052621;28;20559;-64
2024/01/15 01:24:53;;;;;;;8.03;4.50;;;-1.40;96.60;;;;;;2052076;28;20223;-64
2024/01/15 01:25:54;;;;;;;8.30;4.07;;;-1.40;96.30;;;;;;2043163;28;20230;-64
2024/01/15 01:26:55;;;;;;;7.77;3.93;;;-1.40;96.20;;;;;;2039266;28;20227;-64
2024/01/15 01:27:55;;;;;;;10.40;4.33;;;-1.40;96.00;;;;;;2049980;28;20223;-64
2024/01/15 01:28:56;;;;;;;7.50;4.00;;;-1.40;95.90;;;;;;2047717;28;20657;-64
2024/01/15 01:29:57;;;;;;;7.87;4.20;;;-1.30;95.70;;;;;;2046935;28;20253;-64
2024/01/15 01:30:58;;;;;;;7.23;3.57;;;-1.30;95.60;;;;;;2047376;28;20779;-64
2024/01/15 01:31:58;;;;;;;5.70;3.10;;;-1.30;95.70;;;;;;2053870;28;20265;-64
2024/01/15 01:32:59;;;;;;;5.43;2.87;;;-1.20;95.50;;;;;;2051377;28;20255;-64
2024/01/15 01:34:00;;;;;;;5.23;2.97;;;-1.20;94.80;;;;;;2049497;28;20227;-64
2024/01/15 01:35:00;;;;;;;5.70;2.87;;;-1.20;94.90;;;;;;2053278;28;20285;-64
2024/01/15 01:36:07;;;;;;;4.20;2.17;;;-1.30;95.00;;;;;;2052130;28;20703;-64
2024/01/15 01:37:08;;;;;;;5.40;2.40;;;-1.30;95.10;;;;;;2052659;28;20649;-64
2024/01/15 01:38:09;;;;;;;6.43;2.90;;;-1.30;95.20;;;;;;2050898;28;20206;-64
2024/01/15 01:39:10;;;;;;;4.20;2.40;;;-1.20;95.20;;;;;;2053678;28;20189;-64
2024/01/15 01:40:11;;;;;;;4.68;2.50;;;-1.20;94.90;;;;;;2055331;28;20175;-63
2024/01/15 01:41:11;;;;;;;5.13;2.57;;;-1.20;94.70;;;;;;2053956;28;20183;-64
2024/01/15 01:42:12;;;;;;;5.70;2.50;;;-1.20;94.70;;;;;;2053470;28;20189;-65
2024/01/15 01:43:13;;;;;;;4.40;2.63;;;-1.20;94.70;;;;;;2052065;28;20207;-64
2024/01/15 01:44:13;;;;;;;3.57;2.33;;;-1.20;94.70;;;;;;2051933;28;20182;-64
2024/01/15 01:45:15;;;;;;;4.40;2.27;;;-1.10;94.50;;;;;;2053075;28;20184;-64
2024/01/15 01:46:16;;;;;;;3.75;2.28;;;-1.00;94.10;;;;;;2053990;28;20187;-64
2024/01/15 01:47:17;;;;;;;5.28;2.53;;;-1.00;94.10;;;;;;2052261;28;20305;-64
2024/01/15 01:48:18;;;;;;;4.80;2.87;;;-1.00;94.10;;;;;;2051839;28;20684;-64
2024/01/15 01:49:19;;;;;;;4.68;2.47;;;-1.00;93.90;;;;;;2051437;28;20195;-63
2024/01/15 01:50:20;;;;;;;3.13;2.15;;;-0.90;93.50;;;;;;2046135;28;20195;-64
2024/01/15 01:51:22;;;;;;;4.13;2.03;;;-1.00;93.60;;;;;;2045979;28;20231;-64
2024/01/15 01:52:24;;;;;;;4.53;2.15;;;-1.10;94.00;;;;;;2053111;28;20223;-64
2024/01/15 01:53:26;;;;;;;4.88;2.95;;;-1.20;94.30;;;;;;2051849;28;20739;-64
2024/01/15 01:54:31;;;;;;;5.70;2.47;;;-1.20;94.70;;;;;;2051744;28;20231;-64
2024/01/15 01:55:34;;;;;;;4.47;2.70;;;-1.20;94.60;;;;;;2050482;28;20310;-64
2024/01/15 01:56:35;;;;;;;3.92;2.20;;;-1.10;94.40;;;;;;2042092;28;20224;-64
2024/01/15 01:57:36;;;;;;;4.63;2.22;;;-1.00;94.10;;;;;;2048262;28;20318;-64
2024/01/15 01:58:37;;;;;;;3.77;2.23;;;-0.90;93.80;;;;;;2041665;28;20713;-64
2024/01/15 01:59:38;;;;;;;2.87;1.77;;;-0.90;93.50;;;;;;2045976;28;20232;-64
2024/01/15 02:00:39;;;;;;;3.38;2.00;;;-0.90;93.30;;;;;;2046773;28;20219;-63
2024/01/15 02:01:41;;;;;;;2.40;1.73;;;-0.90;93.30;;;;;;2043524;28;20317;-63
2024/01/15 02:02:42;;;;;;;4.18;2.15;;;-0.90;93.60;;;;;;2042824;28;20678;-64
2024/01/15 02:03:43;;;;;;;3.95;2.30;;;-0.90;93.40;;;;;;2049741;28;20227;-64
2024/01/15 02:04:44;;;;;;;4.00;2.33;;;-0.90;93.50;;;;;;2049258;28;20227;-64
2024/01/15 02:05:48;;;;;;;5.25;2.20;;;-0.90;93.40;;;;;;2049864;28;20290;-64
2024/01/15 02:06:50;;;;;;;2.30;1.80;;;-0.90;93.30;;;;;;2044399;28;20679;-64
2024/01/15 02:07:50;;;;;;;5.20;2.47;;;-0.80;93.30;;;;;;2036582;28;20241;-64
2024/01/15 02:08:51;;;;;;;4.20;2.30;;;-0.70;93.10;;;;;;2044010;28;20250;-64
2024/01/15 02:09:52;;;;;;;2.13;1.60;;;-0.70;92.90;;;;;;2043788;28;20311;-64
2024/01/15 02:10:53;;;;;;;4.23;1.80;;;-0.70;92.70;;;;;;2050231;28;20309;-64
2024/01/15 02:11:54;;;;;;;3.37;1.90;;;-0.70;92.50;;;;;;2052366;28;20218;-64
2024/01/15 02:12:54;;;;;;;3.60;1.93;;;-0.70;92.70;;;;;;2051068;28;20642;-64
2024/01/15 02:13:55;;;;;;;2.83;2.40;;;-0.70;92.60;;;;;;2042180;28;20286;-64
2024/01/15 02:14:56;;;;;;;2.50;1.70;;;-0.80;92.60;;;;;;2037663;28;20228;-64
2024/01/15 02:15:56;;;;;;;3.43;2.03;;;-0.80;92.80;;;;;;2048867;28;20297;-64
2024/01/15 02:16:57;;;;;;;3.23;1.90;;;-0.80;93.10;;;;;;2042733;28;20242;-64
2024/01/15 02:18:02;;;;;;;3.53;1.97;;;-0.80;93.00;;;;;;2052340;28;20360;-64
2024/01/15 02:19:03;;;;;;;3.45;1.85;;;-0.80;92.90;;;;;;2049888;28;20218;-63
2024/01/15 02:20:05;;;;;;;2.67;1.80;;;-0.70;92.90;;;;;;2045861;28;20184;-64
2024/01/15 02:21:06;;;;;;;2.70;2.03;;;-0.70;92.90;;;;;;2045263;28;20752;-63
2024/01/15 02:22:06;;;;;;;4.47;2.30;;;-0.60;92.50;;;;;;2053228;28;20199;-64
2024/01/15 02:23:14;;;;;;;2.37;1.60;;;-0.50;92.10;;;;;;2052335;28;20186;-64
2024/01/15 02:24:14;;;;;;;3.05;1.70;;;-0.50;91.80;;;;;;2051467;28;20262;-64
2024/01/15 02:25:15;;;;;;;2.63;1.43;;;-0.50;91.80;;;;;;2049988;28;20859;-64
2024/01/15 02:26:16;;;;;;;2.87;1.93;;;-0.50;91.70;;;;;;2049804;28;20522;-64
2024/01/15 02:27:17;;;;;;;3.63;1.80;;;-0.50;91.60;;;;;;2052201;28;20230;-64
2024/01/15 02:28:18;;;;;;;3.67;1.73;;;-0.40;91.50;;;;;;2051948;28;20273;-64
2024/01/15 02:29:19;;;;;;;2.77;2.00;;;-0.40;91.50;;;;;;2051742;28;20177;-64
2024/01/15 02:30:19;;;;;;;2.53;1.80;;;-0.40;91.30;;;;;;2048826;28;20191;-64
2024/01/15 02:31:20;;;;;;;2.60;1.70;;;-0.30;91.10;;;;;;2049210;28;20433;-64
2024/01/15 02:32:21;;;;;;;4.03;2.77;;;-0.30;91.10;;;;;;2054291;28;20371;-64
2024/01/15 02:33:21;;;;;;;3.30;2.33;;;-0.30;91.10;;;;;;2051681;28;20230;-64
2024/01/15 02:34:22;;;;;;;4.47;2.40;;;-0.30;91.10;;;;;;2051319;28;20227;-64
2024/01/15 02:35:23;;;;;;;3.00;2.00;;;-0.30;91.30;;;;;;2050401;28;20675;-64
2024/01/15 02:36:23;;;;;;;3.27;2.23;;;-0.30;91.50;;;;;;2049640;28;20231;-64
2024/01/15 02:37:24;;;;;;;2.80;1.90;;;-0.30;91.70;;;;;;2052033;28;20223;-64
2024/01/15 02:38:25;;;;;;;3.00;1.97;;;-0.30;91.70;;;;;;2051642;28;20254;-64
2024/01/15 02:39:25;;;;;;;3.83;2.23;;;-0.30;91.60;;;;;;2052003;28;20250;-64
2024/01/15 02:40:26;;;;;;;4.20;2.20;;;-0.30;91.40;;;;;;2050359;28;20301;-63
2024/01/15 02:41:27;;;;;;;3.17;2.10;;;-0.30;91.10;;;;;;2049061;28;20325;-63
2024/01/15 02:42:27;;;;;;;3.47;2.00;;;-0.20;91.20;;;;;;2053062;28;20223;-64
2024/01/15 02:43:28;;;;;;;4.40;2.13;;;-0.30;91.20;;;;;;2053180;28;20223;-64
2024/01/15 02:44:29;;;;;;;4.47;3.13;;;-0.30;91.20;;;;;;2043915;28;20258;-64
2024/01/15 02:45:30;;;;;;;3.70;2.13;;;-0.30;91.20;;;;;;2051275;28;20234;-65
2024/01/15 02:46:30;;;;;;;3.83;2.27;;;-0.40;91.80;;;;;;2048967;28;20799;-64
2024/01/15 02:47:31;;;;;;;3.87;2.30;;;-0.50;92.00;;;;;;2050217;28;20899;-64
2024/01/15 02:48:32;;;;;;;3.10;2.10;;;-0.50;91.70;;;;;;2049965;28;20289;-64
2024/01/15 02:49:33;;;;;;;3.60;1.92;;;-0.50;91.80;;;;;;2052219;28;20227;-64
2024/01/15 02:50:34;;;;;;;4.37;2.30;;;-0.50;91.90;;;;;;2050153;28;20271;-64
2024/01/15 02:51:34;;;;;;;3.77;2.63;;;-0.50;91.80;;;;;;2050691;28;20263;-64
2024/01/15 02:52:35;;;;;;;3.57;2.00;;;-0.50;92.10;;;;;;2048483;28;20971;-64
2024/01/15 02:53:37;;;;;;;3.80;2.30;;;-0.60;92.30;;;;;;2048878;28;20238;-64
2024/01/15 02:54:37;;;;;;;4.38;2.22;;;-0.60;92.60;;;;;;2050077;28;20227;-64
2024/01/15 02:55:38;;;;;;;3.37;2.57;;;-0.70;92.70;;;;;;2048984;28;20232;-64
2024/01/15 02:56:39;;;;;;;3.90;2.33;;;-0.70;92.90;;;;;;2050012;28;20231;-65
2024/01/15 02:57:39;;;;;;;3.03;1.90;;;-0.70;92.90;;;;;;2050627;28;20891;-64
2024/01/15 02:58:40;;;;;;;3.97;1.87;;;-0.70;92.90;;;;;;2051772;28;20222;-64
2024/01/15 02:59:41;;;;;;;3.50;2.37;;;-0.80;93.10;;;;;;2054093;28;20243;-64
2024/01/15 03:00:42;;;;;;;3.97;2.50;;;-0.80;93.20;;;;;;2050485;28;20231;-64
2024/01/15 03:01:43;;;;;;;5.22;2.50;;;-0.80;93.30;;;;;;2036182;28;20228;-64
2024/01/15 03:02:44;;;;;;;3.23;2.10;;;-0.80;93.30;;;;;;2033013;29;20279;-63
2024/01/15 03:03:45;;;;;;;2.83;2.08;;;-0.70;93.50;;;;;;2042176;28;20359;-64
2024/01/15 03:04:46;;;;;;;3.03;2.13;;;-0.80;93.30;;;;;;2042966;28;20733;-64
2024/01/15 03:05:47;;;;;;;2.77;2.40;;;-0.80;93.30;;;;;;2050729;28;20235;-64
2024/01/15 03:06:47;;;;;;;2.88;1.60;;;-0.80;93.40;;;;;;2040796;28;20235;-64
2024/01/15 03:07:48;;;;;;;2.00;1.50;;;-0.80;93.30;;;;;;2038912;28;20236;-64
2024/01/15 03:08:49;;;;;;;3.50;2.17;;;-0.80;92.90;;;;;;2043852;28;20235;-63
2024/01/15 03:09:49;;;;;;;2.97;1.70;;;-0.70;92.90;;;;;;2044718;28;20609;-64
2024/01/15 03:10:50;;;;;;;3.30;2.03;;;-0.70;92.70;;;;;;2050849;28;20224;-64
2024/01/15 03:11:51;;;;;;;2.27;1.53;;;-0.80;93.00;;;;;;2050230;28;20242;-63
2024/01/15 03:12:51;;;;;;;4.20;1.80;;;-0.80;93.30;;;;;;2049239;28;20312;-64
2024/01/15 03:13:52;;;;;;;3.37;2.00;;;-0.80;93.20;;;;;;2048473;28;20230;-65
2024/01/15 03:14:53;;;;;;;2.77;1.60;;;-0.90;93.30;;;;;;2052207;28;20655;-64
2024/01/15 03:15:53;;;;;;;3.70;2.57;;;-0.90;93.60;;;;;;2052415;28;20223;-64
2024/01/15 03:16:54;;;;;;;2.40;1.87;;;-0.90;93.60;;;;;;2049194;28;20225;-64
2024/01/15 03:17:55;;;;;;;2.83;1.80;;;-0.80;93.50;;;;;;2050348;28;20325;-63
2024/01/15 03:18:55;;;;;;;3.00;1.97;;;-0.70;93.30;;;;;;2049933;28;20234;-64
2024/01/15 03:19:56;;;;;;;4.27;1.90;;;-0.70;93.60;;;;;;2051517;28;20739;-64
2024/01/15 03:20:57;;;;;;;3.83;1.87;;;-0.70;92.70;;;;;;2051825;28;20219;-64
2024/01/15 03:21:57;;;;;;;2.47;1.80;;;-0.70;92.80;;;;;;2050212;28;20218;-64
2024/01/15 03:22:58;;;;;;;3.43;2.10;;;-0.70;92.70;;;;;;2053373;28;20930;-64
2024/01/15 03:23:59;;;;;;;10.13;2.57;;;-0.70;93.20;;;;;;2049969;28;20824;-64
2024/01/15 03:25:00;;;;;;;5.23;1.97;;;-0.70;92.60;;;;;;2049933;28;20229;-64
2024/01/15 03:26:00;;;;;;;3.10;1.90;;;-0.70;92.70;;;;;;2054084;28;20225;-64
2024/01/15 03:27:02;;;;;;;3.40;2.53;;;-0.60;92.60;;;;;;2050557;28;20758;-63
2024/01/15 03:28:03;;;;;;;3.10;2.20;;;-0.60;92.30;;;;;;2050646;28;20696;-64
2024/01/15 03:29:03;;;;;;;3.90;2.10;;;-0.60;92.40;;;;;;2050131;28;20179;-63
2024/01/15 03:30:05;;;;;;;3.53;2.20;;;-0.60;92.10;;;;;;2049692;28;20440;-64
2024/01/15 03:31:07;;;;;;;3.70;2.13;;;-0.60;92.10;;;;;;2052175;28;20230;-64
2024/01/15 03:32:08;;;;;;;4.53;2.55;;;-0.60;92.40;;;;;;2051288;28;20206;-64
2024/01/15 03:33:08;;;;;;;5.27;2.53;;;-0.60;92.50;;;;;;2050087;28;20198;-64
2024/01/15 03:34:09;;;;;;;2.57;1.70;;;-0.70;92.90;;;;;;2056735;28;20264;-64
2024/01/15 03:35:10;;;;;;;3.40;2.47;;;-0.70;92.80;;;;;;2051236;28;20719;-64
2024/01/15 03:36:10;;;;;;;3.17;2.10;;;-0.70;92.90;;;;;;2051349;28;20273;-64
2024/01/15 03:37:12;;;;;;;4.10;2.97;;;-0.80;92.70;;;;;;2051699;28;20207;-64
2024/01/15 03:38:13;;;;;;;2.22;1.73;;;-0.80;93.10;;;;;;2050982;28;20238;-64
2024/01/15 03:39:13;;;;;;;4.30;2.60;;;-0.80;93.30;;;;;;2049061;28;20187;-64
2024/01/15 03:40:14;;;;;;;3.13;1.80;;;-0.80;93.50;;;;;;2051353;28;20221;-64
2024/01/15 03:41:15;;;;;;;3.77;2.63;;;-0.80;93.50;;;;;;2052473;28;20250;-64
2024/01/15 03:42:16;;;;;;;4.57;2.10;;;-0.80;93.60;;;;;;2051311;28;20187;-64
2024/01/15 03:43:16;;;;;;;3.83;2.43;;;-0.90;93.80;;;;;;2047997;28;20187;-64
2024/01/15 03:44:17;;;;;;;3.63;1.83;;;-0.90;94.10;;;;;;2048034;28;20234;-64
2024/01/15 03:45:18;;;;;;;3.90;2.63;;;-0.90;94.40;;;;;;2047926;28;20270;-64
2024/01/15 03:46:18;;;;;;;3.83;1.90;;;-0.90;94.30;;;;;;2051232;28;20788;-64
2024/01/15 03:47:19;;;;;;;3.10;2.07;;;-1.00;94.50;;;;;;2052046;28;20237;-64
2024/01/15 03:48:20;;;;;;;4.70;2.60;;;-1.00;94.40;;;;;;2049052;28;20190;-64
2024/01/15 03:49:20;;;;;;;4.03;2.00;;;-1.00;94.50;;;;;;2041795;28;20259;-64
2024/01/15 03:50:21;;;;;;;3.50;2.27;;;-0.90;94.40;;;;;;2048267;28;20607;-63
2024/01/15 03:51:22;;;;;;;5.00;3.27;;;-1.00;94.30;;;;;;2051664;28;20226;-64
2024/01/15 03:52:23;;;;;;;3.60;1.77;;;-1.00;94.60;;;;;;2052176;28;20301;-63
2024/01/15 03:53:24;;;;;;;5.17;2.37;;;-1.00;94.50;;;;;;2051529;28;20352;-63
2024/01/15 03:54:24;;;;;;;3.90;2.23;;;-1.00;94.50;;;;;;2052071;28;20284;-64
2024/01/15 03:55:26;;;;;;;3.03;1.90;;;-1.00;94.90;;;;;;2049328;28;20720;-64
2024/01/15 03:56:26;;;;;;;4.03;2.07;;;-1.00;94.70;;;;;;2053564;28;20314;-64
2024/01/15 03:57:27;;;;;;;4.30;2.13;;;-0.90;94.40;;;;;;2054123;28;20310;-63
2024/01/15 03:58:28;;;;;;;3.20;2.13;;;-0.90;94.00;;;;;;2050750;28;20704;-64
2024/01/15 03:59:28;;;;;;;4.47;2.23;;;-0.90;94.10;;;;;;2051540;28;20293;-64
2024/01/15 04:00:29;;;;;;;3.43;1.87;;;-0.80;93.80;;;;;;2048653;28;20623;-64
2024/01/15 04:01:30;;;;;;;3.80;2.00;;;-0.90;93.70;;;;;;2052615;28;20227;-64
2024/01/15 04:02:31;;;;;;;4.70;2.30;;;-0.80;93.80;;;;;;2053338;28;20898;-64
2024/01/15 04:03:31;;;;;;;5.63;2.23;;;-0.80;93.70;;;;;;2051443;28;20269;-63
2024/01/15 04:04:32;;;;;;;3.43;2.33;;;-0.80;93.50;;;;;;2051060;28;20719;-63
2024/01/15 04:05:33;;;;;;;4.50;2.17;;;-0.70;93.20;;;;;;2049053;28;20506;-64
2024/01/15 04:06:33;;;;;;;4.40;2.33;;;-0.70;92.90;;;;;;2048983;28;20259;-64
2024/01/15 04:07:34;;;;;;;4.80;2.10;;;-0.70;93.20;;;;;;2039756;28;20240;-63
2024/01/15 04:08:35;;;;;;;4.07;1.83;;;-0.70;92.90;;;;;;2047286;28;20253;-63
2024/01/15 04:09:36;;;;;;;3.20;1.80;;;-0.80;93.20;;;;;;2050712;28;20746;-65
2024/01/15 04:10:37;;;;;;;3.43;2.00;;;-0.80;93.40;;;;;;2049256;28;20233;-64
2024/01/15 04:11:37;;;;;;;4.87;2.73;;;-0.70;93.50;;;;;;2049252;28;20223;-63
2024/01/15 04:12:38;;;;;;;4.53;2.40;;;-0.70;93.20;;;;;;2043164;28;20227;-64
2024/01/15 04:13:38;;;;;;;4.83;2.50;;;-0.80;93.30;;;;;;2042751;28;20223;-64
2024/01/15 04:14:39;;;;;;;3.97;2.07;;;-0.90;94.20;;;;;;2044277;28;20223;-64
2024/01/15 04:15:40;;;;;;;4.43;2.57;;;-0.90;93.90;;;;;;2052853;28;20227;-64
2024/01/15 04:16:41;;;;;;;3.63;2.20;;;-0.80;93.90;;;;;;2052916;28;20231;-64
2024/01/15 04:17:42;;;;;;;4.65;2.08;;;-0.80;93.90;;;;;;2052411;28;20230;-64
2024/01/15 04:18:42;;;;;;;3.10;2.20;;;-0.70;93.70;;;;;;2051387;28;20223;-64
2024/01/15 04:19:47;;;;;;;2.37;2.03;;;-0.80;93.50;;;;;;2042688;28;20224;-64
2024/01/15 04:20:48;;;;;;;4.85;2.40;;;-0.90;94.00;;;;;;2038602;28;20228;-64
2024/01/15 04:21:49;;;;;;;3.37;2.10;;;-0.90;94.30;;;;;;2049743;28;20231;-64
2024/01/15 04:22:49;;;;;;;4.17;2.20;;;-1.00;94.50;;;;;;2048254;28;20235;-63
2024/01/15 04:23:50;;;;;;;4.37;2.43;;;-0.90;94.60;;;;;;2053212;28;20238;-64
2024/01/15 04:24:51;;;;;;;2.97;2.20;;;-1.00;94.70;;;;;;2047294;28;20243;-64
2024/01/15 04:25:51;;;;;;;3.80;2.13;;;-1.00;94.80;;;;;;2050797;28;20228;-63
2024/01/15 04:26:52;;;;;;;3.40;2.10;;;-1.00;94.70;;;;;;2050103;28;20230;-64
2024/01/15 04:27:53;;;;;;;3.67;1.93;;;-1.10;95.10;;;;;;2047667;28;20227;-64
2024/01/15 04:28:53;;;;;;;3.23;2.20;;;-1.20;95.70;;;;;;2052322;28;20721;-64
2024/01/15 04:29:54;;;;;;;4.00;2.37;;;-1.20;96.10;;;;;;2051612;28;20211;-64
2024/01/15 04:30:55;;;;;;;6.77;2.67;;;-1.20;96.30;;;;;;2050209;28;20458;-64
2024/01/15 04:31:55;;;;;;;4.23;2.37;;;-1.30;96.10;;;;;;2050196;28;20215;-63
2024/01/15 04:32:56;;;;;;;4.43;2.30;;;-1.30;96.40;;;;;;2053046;28;20787;-64
2024/01/15 04:33:57;;;;;;;5.03;2.60;;;-1.30;96.50;;;;;;2051940;28;20222;-64
2024/01/15 04:34:57;;;;;;;5.03;2.43;;;-1.30;96.50;;;;;;2052048;28;20229;-64
2024/01/15 04:36:03;;;;;;;4.53;2.83;;;-1.30;96.60;;;;;;2050422;28;20230;-65
2024/01/15 04:37:04;;;;;;;5.38;3.08;;;-1.30;96.60;;;;;;2049025;28;20208;-64
2024/01/15 04:38:05;;;;;;;6.60;2.60;;;-1.20;97.00;;;;;;2049399;28;20418;-64
2024/01/15 04:39:05;;;;;;;5.23;2.70;;;-1.10;96.60;;;;;;2052043;28;20191;-64
2024/01/15 04:40:08;;;;;;;6.13;2.60;;;-1.10;96.40;;;;;;2052464;28;20210;-64
2024/01/15 04:41:13;;;;;;;5.22;2.88;;;-1.00;96.10;;;;;;2051569;28;20183;-64
2024/01/15 04:42:14;;;;;;;6.15;3.28;;;-1.10;95.90;;;;;;2048968;28;20190;-64
2024/01/15 04:43:14;;;;;;;5.43;3.07;;;-1.20;96.00;;;;;;2047524;28;20589;-64
2024/01/15 04:44:15;;;;;;;4.60;3.07;;;-1.20;96.00;;;;;;2051866;28;20179;-64
2024/01/15 04:45:16;;;;;;;4.17;2.63;;;-1.20;96.10;;;;;;2052751;28;20194;-64
2024/01/15 04:46:16;;;;;;;5.30;3.20;;;-1.20;96.30;;;;;;2051357;28;20460;-64
2024/01/15 04:47:17;;;;;;;5.13;2.93;;;-1.30;96.50;;;;;;2050737;28;20547;-64
2024/01/15 04:48:18;;;;;;;5.33;2.80;;;-1.30;96.70;;;;;;2049128;28;20187;-64
2024/01/15 04:49:18;;;;;;;4.83;2.67;;;-1.30;96.60;;;;;;2051018;28;20667;-64
2024/01/15 04:50:19;;;;;;;4.47;2.90;;;-1.30;96.70;;;;;;2051076;28;20274;-64
2024/01/15 04:51:20;;;;;;;5.50;2.67;;;-1.30;96.70;;;;;;2052666;28;20679;-64
2024/01/15 04:52:20;;;;;;;5.97;3.20;;;-1.20;96.80;;;;;;2046819;28;20249;-64
2024/01/15 04:53:21;;;;;;;4.47;2.80;;;-1.20;96.60;;;;;;2047129;28;20235;-64
2024/01/15 04:54:22;;;;;;;6.40;3.07;;;-1.20;96.40;;;;;;2050488;28;20227;-64
2024/01/15 04:55:22;;;;;;;7.73;3.43;;;-1.20;96.60;;;;;;2052083;28;20235;-64
2024/01/15 04:56:23;;;;;;;8.47;3.80;;;-1.20;97.50;;;;;;2050744;28;20703;-64
2024/01/15 04:57:24;;;;;;;5.70;3.33;;;-1.20;97.10;;;;;;2050124;28;20223;-64
2024/01/15 04:58:26;;;;;;;6.00;3.50;;;-1.20;97.20;;;;;;2048104;28;20285;-65
2024/01/15 04:59:27;;;;;;;9.27;4.25;;;-1.20;97.40;;;;;;2050668;28;20252;-64
2024/01/15 05:00:27;;;;;;;5.70;4.03;;;-1.20;97.90;;;;;;2050868;28;20229;-65
2024/01/15 05:01:34;;;;;;;9.57;3.97;;;-1.30;98.10;;;;;;2050477;28;20289;-64
2024/01/15 05:02:35;;;;;;;4.45;3.17;;;-1.50;98.60;;;;;;2048062;28;20253;-64
2024/01/15 05:03:36;;;;;;;9.40;4.13;;;-1.60;99.30;;;;;;2049903;28;20231;-64
2024/01/15 05:04:37;;;;;;;5.20;3.30;;;-1.70;99.60;;;;;;2040591;28;20588;-64
2024/01/15 05:05:37;;;;;;;7.13;3.83;;;-1.80;99.80;;;;;;2052489;28;20293;-64
2024/01/15 05:06:38;;;;;;;6.87;3.67;;;-1.80;99.90;;;;;;2062707;28;20295;-63
2024/01/15 05:07:39;;;;;;;6.20;3.73;;;-1.80;99.90;;;;;;2050816;28;20235;-64
2024/01/15 05:08:39;;;;;;;7.37;3.70;;;-1.80;99.90;;;;;;2049216;28;20231;-64
2024/01/15 05:09:40;;;;;;;6.83;3.90;;;-1.80;99.50;;;;;;2051617;28;20231;-64
2024/01/15 05:10:41;;;;;;;5.47;3.40;;;-1.80;99.20;;;;;;2052683;28;20238;-64
2024/01/15 05:11:41;;;;;;;7.97;4.40;;;-1.90;97.70;;;;;;2051827;28;20275;-65
2024/01/15 05:12:42;;;;;;;5.90;3.10;;;-1.90;97.90;;;;;;2051292;28;20234;-64
2024/01/15 05:13:43;;;;;;;4.83;2.93;;;-1.90;98.20;;;;;;2051350;28;20598;-64
2024/01/15 05:14:43;;;;;;;5.33;3.33;;;-1.90;98.30;;;;;;2051129;28;20230;-64
2024/01/15 05:15:44;;;;;;;4.50;2.70;;;-1.90;98.20;;;;;;2044929;28;20671;-64